Погода Пиджимна неделю

Алматинская область, Казахстан

20 - 26 июля
  • 20июля
    Сегодня
    +18°
    +32°
    Практически безоблачно
    ВремяПогодаТемператураВлажностьДавлениеВетер, м/сВероятность осадков
    02:00Ясно и безоблачно+19°C50 %700 мм0.0 м/с2 %
    05:00Ясно и безоблачно+18°C54 %701 мм0.1 м/с2 %
    08:00Ясно и безоблачно+24°C41 %702 мм0.7 м/с2 %
    11:00Ясно и безоблачно+29°C30 %702 мм1.0 м/с3 %
    14:00Практически безоблачно+32°C24 %700 мм0.6 м/с6 %
    17:00Небольшая облачность+30°C22 %700 мм1.0 м/с9 %
    20:00Облачно с прояснениями+26°C31 %701 мм0.5 м/с12 %
    23:00Облачно с прояснениями+22°C47 %702 мм1.8 м/с22 %
  • 21июля
    Воскресенье
    +19°
    +32°
    Ясно и безоблачно
    ВремяПогодаТемператураВлажностьДавлениеВетер, м/сВероятность осадков
    02:00Ясно и безоблачно+20°C66 %702 мм0.0 м/с8 %
    05:00Ясно и безоблачно+19°C68 %703 мм0.3 м/с2 %
    08:00Практически безоблачно+25°C48 %704 мм0.4 м/с3 %
    11:00Ясно и безоблачно+29°C33 %704 мм0.8 м/с14 %
    14:00Ясно и безоблачно+32°C26 %702 мм1.3 м/с8 %
    17:00Ясно и безоблачно+30°C25 %701 мм1.7 м/с3 %
    20:00Ясно и безоблачно+26°C30 %702 мм0.2 м/с2 %
    23:00Ясно и безоблачно+21°C37 %702 мм0.5 м/с2 %
  • 22июля
    Понедельник
    +20°
    +35°
    Ясно и безоблачно
    ВремяПогодаТемператураВлажностьДавлениеВетер, м/сВероятность осадков
    02:00Ясно и безоблачно+20°C41 %702 мм0.3 м/с2 %
    05:00Ясно и безоблачно+19°C46 %702 мм0.4 м/с2 %
    08:00Ясно и безоблачно+27°C39 %703 мм0.7 м/с2 %
    11:00Ясно и безоблачно+31°C24 %703 мм1.1 м/с2 %
    14:00Ясно и безоблачно+34°C18 %702 мм1.3 м/с2 %
    17:00Ясно и безоблачно+32°C16 %701 мм0.9 м/с2 %
    20:00Ясно и безоблачно+26°C26 %701 мм0.0 м/с2 %
    23:00Ясно и безоблачно+23°C30 %701 мм0.6 м/с2 %
  • 23июля
    Вторник
    +22°
    +36°
    Небольшая облачность
    ВремяПогодаТемператураВлажностьДавлениеВетер, м/сВероятность осадков
    02:00Ясно и безоблачно+22°C35 %700 мм0.5 м/с2 %
    05:00Ясно и безоблачно+21°C39 %700 мм0.2 м/с2 %
    08:00Ясно и безоблачно+29°C28 %702 мм1.0 м/с3 %
    11:00Ясно и безоблачно+33°C22 %701 мм1.1 м/с2 %
    14:00Небольшая облачность+36°C17 %700 мм1.0 м/с2 %
    17:00Облачно с прояснениями+32°C18 %699 мм1.3 м/с2 %
    20:00Облачно с прояснениями+29°C25 %699 мм0.8 м/с5 %
    23:00Облачно с прояснениями+25°C32 %698 мм0.9 м/с7 %
Мы используем cookies
Соглашаюсь